Denis Sullivan — WDA2917 — position and weather

sailwx.info

Track history (hours):
 
Tides and Currents Weather Stations Pressure Air Temp Water Temp Dewpoint Dewpoint Depression Visibility Wind Speed Wind Dir Waves Ship Positions

Denis Sullivan (United States)

From her homeport of Discovery World in Milwaukee, the schooner offers educational day sails and private charters for people of all ages from May to September.

Ship's website: http://www.discoveryworld.org/denisSullivan.php

Owner: Discovery World Ltd., MILWAUKEE, WI. More information available from US FCC via Universal Licensing System and Coast Guard Vessel Documentation Center.

Last reported at 2017-Aug-09 16:28 UTC. Time now 2017-Oct-22 15:35 UTC.
Position N 45°01' W 086°06'.
Warning: this ship's position is months out of date.

Length 42 m.

Type: Sailing vessel. MMSI: 338327000.

Date/timePositionNaut miles runAvg speedWind from/ knotsBaromVisibWave heightAir tempDewpointWater temp
2017-Aug-09 16:28N 45°01' W 086°06'0 0.0
2017-Aug-09 15:58N 45°01' W 086°06'0 0.0
2017-Aug-09 14:46N 45°01' W 086°06'0 0.0
2017-Aug-09 14:22N 45°01' W 086°06'0 0.0
2017-Aug-09 13:58N 45°01' W 086°06'0 0.0
2017-Aug-09 13:28N 45°01' W 086°06'0 0.0
2017-Aug-09 12:22N 45°01' W 086°06'0 0.1
2017-Aug-09 12:00N 45°01' W 086°06'4 5.0
2017-Aug-09 11:14N 45°01' W 086°00'2 6.8
2017-Aug-09 10:53N 45°01' W 085°57'3 6.9
2017-Aug-09 10:26N 45°04' W 085°55'3 6.2
2017-Aug-09 10:00N 45°06' W 085°54'3 5.6
2017-Aug-09 09:30N 45°09' W 085°52'3 5.6
2017-Aug-09 09:00N 45°11' W 085°49'3 5.3
2017-Aug-09 08:30N 45°13' W 085°47'3 5.4
2017-Aug-09 08:00N 45°15' W 085°44'3 5.3
2017-Aug-09 07:30N 45°17' W 085°42'3 5.4
2017-Aug-09 07:00N 45°19' W 085°40'3 5.3
2017-Aug-09 06:30N 45°22' W 085°38'3 5.3
2017-Aug-09 06:00N 45°24' W 085°35'3 5.2
2017-Aug-09 05:30N 45°26' W 085°33'3 5.3
2017-Aug-09 05:00N 45°28' W 085°31'3 5.0
2017-Aug-09 04:30N 45°30' W 085°29'3 5.1
2017-Aug-09 04:00N 45°32' W 085°27'3 5.2
2017-Aug-09 03:30N 45°34' W 085°24'3 5.0
2017-Aug-09 03:00N 45°36' W 085°22'3 5.1
2017-Aug-09 02:30N 45°38' W 085°20'3 6.0
2017-Aug-09 02:00N 45°40' W 085°17'3 6.3
2017-Aug-09 01:30N 45°43' W 085°15'3 5.9
2017-Aug-09 01:00N 45°45' W 085°12'3 5.4
2017-Aug-09 00:30N 45°47' W 085°09'3 6.6
2017-Aug-09 00:00N 45°50' W 085°07'4 7.1
2017-Aug-08 23:30N 45°50' W 085°02'4 7.0
2017-Aug-08 23:00N 45°49' W 084°57'3 6.8
2017-Aug-08 22:30N 45°49' W 084°52'3 6.8
2017-Aug-08 22:00N 45°49' W 084°47'3 6.3
2017-Aug-08 21:30N 45°49' W 084°43'3 5.8
2017-Aug-08 21:00N 45°47' W 084°39'3 6.0
2017-Aug-08 20:30N 45°46' W 084°36'3 5.9
2017-Aug-08 20:00N 45°44' W 084°32'3 5.9
2017-Aug-08 19:30N 45°43' W 084°29'3 6.2
2017-Aug-08 19:00N 45°42' W 084°24'3 5.9
2017-Aug-08 18:27N 45°41' W 084°20'3 6.1
2017-Aug-08 18:00N 45°41' W 084°16'9 6.5
2017-Aug-08 16:33N 45°37' W 084°04'1 6.9
2017-Aug-08 16:29N 45°37' W 084°03'6 6.8
2017-Aug-08 15:38N 45°34' W 083°56'1 6.9
2017-Aug-08 15:30N 45°34' W 083°54'3 6.6
2017-Aug-08 15:01N 45°32' W 083°50'3 6.5
2017-Aug-08 14:30N 45°31' W 083°46'3 6.5
2017-Aug-08 14:00N 45°30' W 083°41'3 6.5
2017-Aug-08 13:30N 45°29' W 083°37'3 6.3
2017-Aug-08 13:00N 45°27' W 083°33'4 6.9
2017-Aug-08 12:30N 45°25' W 083°29'4 6.7
2017-Aug-08 11:58N 45°24' W 083°25'  
Track history (hours):
 
Tides and Currents Weather Stations Pressure Air Temp Water Temp Dewpoint Dewpoint Depression Visibility Wind Speed Wind Dir Waves Ship Positions

Denis Sullivan (United States)

From her homeport of Discovery World in Milwaukee, the schooner offers educational day sails and private charters for people of all ages from May to September.

Ship's website: http://www.discoveryworld.org/denisSullivan.php

Owner: Discovery World Ltd., MILWAUKEE, WI. More information available from US FCC via Universal Licensing System and Coast Guard Vessel Documentation Center.

Last reported at 2017-Aug-09 16:28 UTC. Time now 2017-Oct-22 15:35 UTC.
Position N 45°01' W 086°06'.
Warning: this ship's position is months out of date.

Length 42 m.

Type: Sailing vessel. MMSI: 338327000.

Date/timePositionNaut miles runAvg speedWind from/ knotsBaromVisibWave heightAir tempDewpointWater temp
2017-Aug-09 16:28N 45°01' W 086°06'0 0.0
2017-Aug-09 15:58N 45°01' W 086°06'0 0.0
2017-Aug-09 14:46N 45°01' W 086°06'0 0.0
2017-Aug-09 14:22N 45°01' W 086°06'0 0.0
2017-Aug-09 13:58N 45°01' W 086°06'0 0.0
2017-Aug-09 13:28N 45°01' W 086°06'0 0.0
2017-Aug-09 12:22N 45°01' W 086°06'0 0.1
2017-Aug-09 12:00N 45°01' W 086°06'4 5.0
2017-Aug-09 11:14N 45°01' W 086°00'2 6.8
2017-Aug-09 10:53N 45°01' W 085°57'3 6.9
2017-Aug-09 10:26N 45°04' W 085°55'3 6.2
2017-Aug-09 10:00N 45°06' W 085°54'3 5.6
2017-Aug-09 09:30N 45°09' W 085°52'3 5.6
2017-Aug-09 09:00N 45°11' W 085°49'3 5.3
2017-Aug-09 08:30N 45°13' W 085°47'3 5.4
2017-Aug-09 08:00N 45°15' W 085°44'3 5.3
2017-Aug-09 07:30N 45°17' W 085°42'3 5.4
2017-Aug-09 07:00N 45°19' W 085°40'3 5.3
2017-Aug-09 06:30N 45°22' W 085°38'3 5.3
2017-Aug-09 06:00N 45°24' W 085°35'3 5.2
2017-Aug-09 05:30N 45°26' W 085°33'3 5.3
2017-Aug-09 05:00N 45°28' W 085°31'3 5.0
2017-Aug-09 04:30N 45°30' W 085°29'3 5.1
2017-Aug-09 04:00N 45°32' W 085°27'3 5.2
2017-Aug-09 03:30N 45°34' W 085°24'3 5.0
2017-Aug-09 03:00N 45°36' W 085°22'3 5.1
2017-Aug-09 02:30N 45°38' W 085°20'3 6.0
2017-Aug-09 02:00N 45°40' W 085°17'3 6.3
2017-Aug-09 01:30N 45°43' W 085°15'3 5.9
2017-Aug-09 01:00N 45°45' W 085°12'3 5.4
2017-Aug-09 00:30N 45°47' W 085°09'3 6.6
2017-Aug-09 00:00N 45°50' W 085°07'4 7.1
2017-Aug-08 23:30N 45°50' W 085°02'4 7.0
2017-Aug-08 23:00N 45°49' W 084°57'3 6.8
2017-Aug-08 22:30N 45°49' W 084°52'3 6.8
2017-Aug-08 22:00N 45°49' W 084°47'3 6.3
2017-Aug-08 21:30N 45°49' W 084°43'3 5.8
2017-Aug-08 21:00N 45°47' W 084°39'3 6.0
2017-Aug-08 20:30N 45°46' W 084°36'3 5.9
2017-Aug-08 20:00N 45°44' W 084°32'3 5.9
2017-Aug-08 19:30N 45°43' W 084°29'3 6.2
2017-Aug-08 19:00N 45°42' W 084°24'3 5.9
2017-Aug-08 18:27N 45°41' W 084°20'3 6.1
2017-Aug-08 18:00N 45°41' W 084°16'9 6.5
2017-Aug-08 16:33N 45°37' W 084°04'1 6.9
2017-Aug-08 16:29N 45°37' W 084°03'6 6.8
2017-Aug-08 15:38N 45°34' W 083°56'1 6.9
2017-Aug-08 15:30N 45°34' W 083°54'3 6.6
2017-Aug-08 15:01N 45°32' W 083°50'3 6.5
2017-Aug-08 14:30N 45°31' W 083°46'3 6.5
2017-Aug-08 14:00N 45°30' W 083°41'3 6.5
2017-Aug-08 13:30N 45°29' W 083°37'3 6.3
2017-Aug-08 13:00N 45°27' W 083°33'4 6.9
2017-Aug-08 12:30N 45°25' W 083°29'4 6.7
2017-Aug-08 11:58N 45°24' W 083°25'  

Dump ship's entire track history